Time;durP1;ratioP1;P1;durP2;ratioP2;P2;SDS_P1;SDS_P2;PMS_P1;PMS_P2;Temp;Humidity;BMP_temperature;BMP_pressure;BME280_temperature;BME280_humidity;BME280_pressure;Samples;Min_cycle;Max_cycle;Signal;HPM_P1;HPM_P2
2021/07/30 00:01:27;;;;;;;91.40;13.03;;;;;;;14.80;69.54;98514.13;2221792;80;21305;-80
2021/07/30 00:04:29;;;;;;;10.75;6.95;;;;;;;14.76;69.93;98512.87;2222074;80;21067;-81
2021/07/30 00:07:29;;;;;;;49.88;9.98;;;;;;;14.74;69.74;98511.57;2222259;80;21316;-78
2021/07/30 00:10:30;;;;;;;8.53;6.42;;;;;;;14.67;70.05;98511.17;2222419;80;20913;-80
2021/07/30 00:13:30;;;;;;;10.70;6.65;;;;;;;14.66;70.16;98511.61;2222291;80;20917;-81
2021/07/30 00:16:31;;;;;;;13.22;7.37;;;;;;;14.64;70.22;98508.58;2222328;80;20948;-80
2021/07/30 00:19:33;;;;;;;7.20;6.50;;;;;;;14.64;70.31;98502.88;2222434;80;20952;-80
2021/07/30 00:22:33;;;;;;;7.20;6.12;;;;;;;14.66;70.32;98506.36;2222333;80;21356;-80
2021/07/30 00:25:34;;;;;;;9.10;6.37;;;;;;;14.69;70.24;98505.45;2222534;80;20944;-80
2021/07/30 00:28:34;;;;;;;8.48;6.62;;;;;;;14.69;70.15;98498.89;2222256;80;20960;-80
2021/07/30 00:31:35;;;;;;;10.60;5.97;;;;;;;14.63;70.05;98499.82;2222628;80;20905;-81
2021/07/30 00:34:35;;;;;;;9.18;6.08;;;;;;;14.60;70.25;98497.23;2222793;80;20955;-80
2021/07/30 00:37:36;;;;;;;8.45;6.33;;;;;;;14.54;70.16;98498.59;2222749;80;20924;-81
2021/07/30 00:40:36;;;;;;;6.42;5.83;;;;;;;14.52;70.38;98499.50;2222557;80;20940;-80
2021/07/30 00:43:37;;;;;;;7.28;6.60;;;;;;;14.49;70.45;98500.84;2222640;80;20908;-80
2021/07/30 00:46:37;;;;;;;12.18;6.80;;;;;;;14.46;70.38;98493.86;2222444;80;21277;-81
2021/07/30 00:49:38;;;;;;;8.00;6.62;;;;;;;14.47;70.49;98497.36;2222539;80;21269;-81
2021/07/30 00:52:38;;;;;;;6.50;5.90;;;;;;;14.48;70.54;98501.28;2222445;80;20893;-79
2021/07/30 00:55:39;;;;;;;9.10;6.25;;;;;;;14.45;70.53;98503.06;2222210;80;20912;-81
2021/07/30 00:58:40;;;;;;;8.33;6.40;;;;;;;14.39;70.67;98501.33;2222775;80;21289;-80
2021/07/30 01:01:41;;;;;;;7.95;6.80;;;;;;;14.32;70.52;98504.90;2222662;80;20988;-80
2021/07/30 01:04:41;;;;;;;8.53;6.87;;;;;;;14.30;71.05;98499.66;2222608;80;20948;-79
2021/07/30 01:07:42;;;;;;;7.65;6.25;;;;;;;14.33;71.22;98499.63;2222665;80;20912;-80
2021/07/30 01:10:42;;;;;;;6.83;6.12;;;;;;;14.31;71.01;98497.91;2222805;80;20972;-80
2021/07/30 01:13:42;;;;;;;8.38;6.42;;;;;;;14.25;71.22;98490.95;2222528;80;20927;-80
2021/07/30 01:16:43;;;;;;;8.45;6.40;;;;;;;14.27;71.50;98498.81;2222289;80;20944;-79
2021/07/30 01:19:44;;;;;;;10.65;6.90;;;;;;;14.26;71.51;98492.69;2222295;80;20964;-79
2021/07/30 01:22:44;;;;;;;7.95;6.10;;;;;;;14.25;71.54;98496.20;2222743;80;21332;-81
2021/07/30 01:25:45;;;;;;;10.43;6.85;;;;;;;14.27;71.50;98492.25;2222615;80;20972;-81
2021/07/30 01:28:45;;;;;;;8.05;6.22;;;;;;;14.22;71.38;98492.73;2220324;80;21000;-80
2021/07/30 01:31:46;;;;;;;8.35;6.45;;;;;;;14.16;71.47;98488.41;2212162;80;21266;-80
2021/07/30 01:34:46;;;;;;;60.40;9.50;;;;;;;14.11;71.58;98488.88;2212036;80;20920;-80
2021/07/30 01:37:47;;;;;;;7.55;6.53;;;;;;;14.10;71.86;98485.83;2212175;80;20929;-80
2021/07/30 01:40:47;;;;;;;10.15;6.80;;;;;;;14.10;71.95;98486.27;2211865;80;20948;-80
2021/07/30 01:43:48;;;;;;;9.13;6.62;;;;;;;14.08;71.90;98484.09;2212314;80;20893;-80
2021/07/30 01:46:48;;;;;;;8.08;6.72;;;;;;;14.04;71.77;98487.19;2212208;80;21294;-79
2021/07/30 01:49:49;;;;;;;9.95;6.83;;;;;;;14.00;71.91;98484.16;2212109;81;20976;-81
2021/07/30 01:52:50;;;;;;;8.63;6.53;;;;;;;13.96;71.90;98483.75;2212234;80;21016;-79
2021/07/30 01:55:50;;;;;;;8.73;6.47;;;;;;;13.92;71.92;98482.91;2212271;81;20969;-79
2021/07/30 01:58:51;;;;;;;9.65;6.45;;;;;;;13.87;72.08;98491.25;2212246;81;20977;-79
2021/07/30 02:01:51;;;;;;;13.28;6.65;;;;;;;13.87;72.29;98491.66;2212098;80;20992;-78
2021/07/30 02:04:52;;;;;;;12.10;7.05;;;;;;;13.82;72.21;98484.26;2211583;80;20933;-80
2021/07/30 02:07:52;;;;;;;8.68;6.37;;;;;;;13.78;72.47;98482.54;2212389;80;20919;-80
2021/07/30 02:10:53;;;;;;;8.05;6.33;;;;;;;13.75;72.51;98486.05;2212225;81;21412;-80
2021/07/30 02:17:13;;;;;;;42.50;10.15;;;;;;;13.71;72.57;98484.33;2212241;80;20967;-80
2021/07/30 02:20:13;;;;;;;7.40;6.53;;;;;;;13.70;72.88;98485.21;2212291;81;20944;-80
2021/07/30 02:23:14;;;;;;;7.25;6.45;;;;;;;13.68;72.67;98492.22;2212210;81;20909;-80
2021/07/30 02:26:14;;;;;;;50.28;10.25;;;;;;;13.61;72.79;98487.89;2212579;80;20913;-80
2021/07/30 02:29:15;;;;;;;7.35;6.65;;;;;;;13.59;72.93;98487.03;2212309;80;21017;-80
2021/07/30 02:32:15;;;;;;;14.03;6.80;;;;;;;13.57;72.91;98492.72;2212630;81;21302;-79
2021/07/30 02:35:16;;;;;;;13.68;7.42;;;;;;;13.54;72.98;98490.12;2212147;80;21308;-81
2021/07/30 02:38:16;;;;;;;13.18;7.08;;;;;;;13.57;73.15;98496.66;2212127;80;21345;-78
2021/07/30 02:41:17;;;;;;;11.57;7.60;;;;;;;14.02;75.12;98499.02;2211763;80;21031;-79
2021/07/30 02:44:19;;;;;;;6.97;6.25;;;;;;;15.21;72.91;98497.90;2190169;81;20951;-80
2021/07/30 02:47:20;;;;;;;47.17;11.53;;;;;;;15.03;70.28;98500.75;2211866;80;21323;-79
2021/07/30 02:50:20;;;;;;;11.95;7.28;;;;;;;14.69;70.26;98501.96;2211662;81;21442;-79
2021/07/30 02:53:20;;;;;;;10.78;7.62;;;;;;;14.48;70.55;98496.03;2212157;80;20977;-79
2021/07/30 02:56:21;;;;;;;21.85;8.30;;;;;;;14.31;70.66;98501.41;2212005;80;20929;-79
2021/07/30 02:59:21;;;;;;;10.87;7.90;;;;;;;14.16;71.44;98498.03;2211989;80;20951;-79
2021/07/30 03:02:22;;;;;;;18.95;8.05;;;;;;;14.05;71.43;98500.74;2212020;81;20940;-80
2021/07/30 03:05:22;;;;;;;11.40;7.35;;;;;;;13.97;71.52;98504.73;2212203;80;21000;-79
2021/07/30 03:08:24;;;;;;;9.00;6.90;;;;;;;13.93;71.90;98512.64;2211961;80;21293;-79
2021/07/30 03:11:25;;;;;;;18.62;8.15;;;;;;;13.78;71.46;98501.77;2212012;81;20984;-79
2021/07/30 03:14:25;;;;;;;10.48;7.15;;;;;;;13.67;71.97;98510.14;2212011;80;20945;-78
2021/07/30 03:17:26;;;;;;;12.20;6.75;;;;;;;13.59;72.03;98512.81;2212056;80;20914;-79
2021/07/30 03:20:26;;;;;;;10.18;7.35;;;;;;;13.56;72.50;98519.83;2212029;80;20956;-80
2021/07/30 03:23:27;;;;;;;8.00;7.20;;;;;;;13.57;72.20;98517.19;2211914;80;20972;-79
2021/07/30 03:26:27;;;;;;;12.53;7.42;;;;;;;13.53;72.05;98509.35;2211967;80;20955;-80
2021/07/30 03:29:28;;;;;;;9.93;8.08;;;;;;;13.45;72.45;98509.39;2214553;80;21337;-79
2021/07/30 03:32:28;;;;;;;8.28;7.28;;;;;;;13.44;72.63;98514.64;2222144;80;20921;-79
2021/07/30 03:35:29;;;;;;;9.28;7.97;;;;;;;13.42;72.48;98517.72;2222192;80;20952;-79
2021/07/30 03:38:29;;;;;;;9.23;7.30;;;;;;;13.42;72.67;98519.02;2222066;80;20940;-78
2021/07/30 03:41:30;;;;;;;15.88;8.03;;;;;;;13.45;72.73;98516.39;2221929;80;20976;-78
2021/07/30 03:44:31;;;;;;;13.58;9.80;;;;;;;13.54;72.90;98514.59;2221809;80;20968;-79
2021/07/30 03:47:31;;;;;;;8.60;6.85;;;;;;;13.59;72.62;98510.62;2221813;80;20940;-77
2021/07/30 03:50:32;;;;;;;10.90;7.20;;;;;;;13.60;72.72;98512.38;2221674;80;20944;-78
2021/07/30 03:53:32;;;;;;;11.30;7.80;;;;;;;13.60;72.76;98514.55;2221854;80;20960;-79
2021/07/30 03:56:33;;;;;;;16.40;7.17;;;;;;;13.63;72.95;98517.60;2221756;80;20913;-79
2021/07/30 03:59:33;;;;;;;11.90;7.53;;;;;;;13.66;72.92;98517.14;2221640;80;20940;-78
2021/07/30 04:02:34;;;;;;;9.85;7.47;;;;;;;13.70;73.21;98511.44;2221612;80;21300;-79
2021/07/30 04:05:34;;;;;;;7.83;6.53;;;;;;;13.75;73.23;98512.28;2221693;80;20955;-79
2021/07/30 04:08:34;;;;;;;7.80;7.00;;;;;;;13.86;73.12;98517.46;2221949;80;20932;-78
2021/07/30 04:11:35;;;;;;;24.87;7.95;;;;;;;13.94;73.09;98516.56;2222525;80;21023;-79
2021/07/30 04:14:36;;;;;;;15.08;7.20;;;;;;;14.02;73.17;98517.38;2221843;80;20975;-79
2021/07/30 04:17:36;;;;;;;7.97;7.15;;;;;;;14.12;73.04;98519.94;2221996;80;20932;-80
2021/07/30 04:20:40;;;;;;;9.80;6.55;;;;;;;14.23;73.07;98516.78;2221707;80;20959;-79
2021/07/30 04:23:40;;;;;;;37.40;8.93;;;;;;;14.32;72.80;98523.27;2221593;80;21360;-79
2021/07/30 04:26:41;;;;;;;80.30;13.35;;;;;;;14.49;72.93;98517.47;2221478;80;20962;-78
2021/07/30 04:29:41;;;;;;;8.78;7.00;;;;;;;14.70;72.86;98517.71;2218596;80;20961;-80
2021/07/30 04:32:42;;;;;;;7.87;7.08;;;;;;;14.97;72.80;98512.20;2210968;80;20963;-80
2021/07/30 04:35:43;;;;;;;11.53;6.42;;;;;;;15.26;72.69;98517.56;2210131;80;20944;-79
2021/07/30 04:38:43;;;;;;;1337.75;143.72;;;;;;;15.56;72.41;98514.54;2210613;80;20916;-79
2021/07/30 04:41:44;;;;;;;16.82;7.78;;;;;;;15.85;71.89;98515.52;2211041;81;20984;-79
2021/07/30 04:44:44;;;;;;;7.33;6.62;;;;;;;16.11;71.66;98511.17;2210874;80;21325;-81
2021/07/30 04:47:45;;;;;;;17.90;7.35;;;;;;;16.38;71.30;98508.54;2210968;80;20940;-81
2021/07/30 04:50:45;;;;;;;10.43;7.12;;;;;;;16.59;71.09;98506.47;2211800;80;20945;-82
2021/07/30 04:53:49;;;;;;;11.43;7.67;;;;;;;16.86;71.56;98507.31;2211749;80;20929;-81
2021/07/30 04:56:48;;;;;;;12.07;8.18;;;;;;;17.09;71.14;98502.92;2210988;80;21016;-79
2021/07/30 04:59:49;;;;;;;10.18;8.60;;;;;;;17.45;71.09;98501.33;2211645;81;20963;-80
2021/07/30 05:02:49;;;;;;;23.80;14.53;;;;;;;17.85;70.84;98501.36;2211139;80;20940;-78
2021/07/30 05:05:50;;;;;;;23.00;12.00;;;;;;;18.05;69.93;98500.89;2211697;81;20952;-80
2021/07/30 05:08:50;;;;;;;13.15;10.50;;;;;;;18.37;69.35;98504.98;2212127;81;21040;-81
2021/07/30 05:11:51;;;;;;;24.12;10.65;;;;;;;18.82;68.23;98496.80;2211946;81;20967;-80
2021/07/30 05:14:51;;;;;;;14.05;10.48;;;;;;;19.26;66.89;98504.86;2212249;81;20971;-80
2021/07/30 05:17:52;;;;;;;13.62;10.70;;;;;;;19.57;65.68;98503.55;2212433;81;21340;-79
2021/07/30 05:20:52;;;;;;;22.02;11.08;;;;;;;19.90;64.59;98499.46;2211631;81;21004;-81
2021/07/30 05:23:53;;;;;;;20.52;10.25;;;;;;;20.18;63.65;98499.03;2211931;81;20968;-78
2021/07/30 05:26:53;;;;;;;14.10;10.05;;;;;;;20.40;62.23;98501.88;2212218;81;20967;-80
2021/07/30 05:29:54;;;;;;;17.15;9.73;;;;;;;20.63;61.74;98505.95;2214907;80;21015;-80
2021/07/30 05:32:54;;;;;;;12.78;8.75;;;;;;;20.91;61.33;98501.91;2222667;80;20924;-79
2021/07/30 05:35:55;;;;;;;15.75;9.40;;;;;;;21.12;60.22;98495.44;2222018;80;20921;-78
2021/07/30 05:38:55;;;;;;;15.43;9.45;;;;;;;21.30;58.46;98496.12;2221358;80;20932;-78
2021/07/30 05:41:56;;;;;;;12.37;8.38;;;;;;;21.41;57.85;98497.05;2222429;80;20983;-79
2021/07/30 05:44:59;;;;;;;10.50;8.10;;;;;;;21.47;56.09;98495.03;2222726;80;20992;-80
2021/07/30 05:48:00;;;;;;;16.65;8.65;;;;;;;21.48;56.13;98487.94;2223037;80;20952;-78
2021/07/30 05:51:00;;;;;;;11.78;8.25;;;;;;;21.65;56.64;98488.62;2221813;80;20947;-78
2021/07/30 05:54:01;;;;;;;23.52;8.75;;;;;;;21.84;56.16;98491.00;2222388;80;20936;-80
2021/07/30 05:57:01;;;;;;;11.45;8.75;;;;;;;21.96;55.93;98491.84;2222524;80;20987;-80
2021/07/30 06:00:02;;;;;;;13.00;8.55;;;;;;;22.09;54.52;98494.91;2222864;80;20936;-80
2021/07/30 06:03:05;;;;;;;14.38;8.08;;;;;;;22.18;54.59;98498.52;2194391;80;20920;-78
2021/07/30 06:06:05;;;;;;;8.98;7.75;;;;;;;22.39;54.87;98498.98;2222142;80;21315;-80
2021/07/30 06:09:06;;;;;;;13.00;7.85;;;;;;;22.55;53.49;98498.77;2222589;80;20955;-79
2021/07/30 06:12:06;;;;;;;16.50;7.50;;;;;;;22.62;52.99;98505.16;2222272;80;20952;-80
2021/07/30 06:15:07;;;;;;;20.20;8.03;;;;;;;22.70;53.01;98505.23;2221830;80;21304;-80
2021/07/30 06:18:07;;;;;;;13.40;7.22;;;;;;;22.80;51.12;98504.41;2221526;80;20940;-80
2021/07/30 06:21:08;;;;;;;9.40;6.80;;;;;;;22.95;51.66;98502.89;2222057;80;20920;-80
2021/07/30 06:24:08;;;;;;;11.18;8.43;;;;;;;23.16;50.73;98505.94;2222158;80;20901;-81
2021/07/30 06:27:09;;;;;;;13.25;8.03;;;;;;;23.51;51.02;98508.38;2222711;80;20912;-81
2021/07/30 06:30:09;;;;;;;18.23;10.13;;;;;;;23.90;49.77;98504.83;2223030;80;21067;-81
2021/07/30 06:33:10;;;;;;;13.35;8.70;;;;;;;24.05;50.07;98501.42;2222836;80;20920;-81
2021/07/30 06:36:10;;;;;;;15.93;10.43;;;;;;;24.62;48.84;98499.09;2222421;80;20916;-80
2021/07/30 06:39:11;;;;;;;18.80;10.53;;;;;;;24.56;48.19;98502.06;2222445;80;20935;-81
2021/07/30 06:42:11;;;;;;;11.50;8.83;;;;;;;24.49;46.92;98502.45;2221821;80;20984;-81
2021/07/30 06:45:12;;;;;;;13.68;9.80;;;;;;;24.11;46.79;98498.46;2222124;80;20951;-80
2021/07/30 06:48:12;;;;;;;10.43;8.35;;;;;;;24.35;47.81;98502.66;2221556;80;21324;-78
2021/07/30 06:51:13;;;;;;;10.95;6.80;;;;;;;25.01;47.05;98494.88;2221777;80;20924;-81
2021/07/30 06:54:13;;;;;;;12.82;7.17;;;;;;;25.17;46.34;98493.63;2221730;80;21001;-81
2021/07/30 06:57:14;;;;;;;9.40;7.30;;;;;;;25.42;45.09;98491.85;2223434;80;20951;-82
2021/07/30 07:00:14;;;;;;;9.08;6.58;;;;;;;25.45;44.06;98486.34;2222724;80;21316;-80
2021/07/30 07:03:15;;;;;;;23.57;21.15;;;;;;;25.40;45.48;98486.59;2222060;80;21380;-79
2021/07/30 07:06:15;;;;;;;35.30;22.00;;;;;;;26.11;44.99;98480.94;2222100;80;20968;-82
2021/07/30 07:09:16;;;;;;;32.15;28.45;;;;;;;26.46;44.54;98485.63;2222184;80;20936;-80
2021/07/30 07:12:16;;;;;;;12.75;8.80;;;;;;;26.73;43.21;98484.95;2221912;80;21057;-82
2021/07/30 07:15:17;;;;;;;8.90;6.53;;;;;;;26.58;41.67;98486.72;2221747;80;20932;-81
2021/07/30 07:18:17;;;;;;;13.53;7.83;;;;;;;26.62;41.56;98485.59;2221951;80;20932;-80
2021/07/30 07:21:18;;;;;;;8.25;6.08;;;;;;;26.75;42.12;98483.91;2222534;80;20951;-83
2021/07/30 07:24:19;;;;;;;10.60;7.85;;;;;;;27.08;40.37;98478.41;2222259;80;20943;-81
2021/07/30 07:27:19;;;;;;;6.92;5.65;;;;;;;27.01;40.71;98482.41;2221971;80;20928;-81
2021/07/30 07:30:20;;;;;;;8.60;6.90;;;;;;;26.73;39.71;98481.80;2222539;80;20976;-81
2021/07/30 07:33:20;;;;;;;9.38;5.62;;;;;;;26.59;41.31;98479.08;2222641;80;20928;-81
2021/07/30 07:36:21;;;;;;;9.68;6.40;;;;;;;26.67;39.27;98472.80;2222004;80;20947;-81
2021/07/30 07:39:22;;;;;;;7.58;5.25;;;;;;;26.42;40.78;98474.72;2222228;80;20936;-82
2021/07/30 07:42:22;;;;;;;10.90;6.15;;;;;;;26.55;39.72;98481.08;2222137;80;21051;-81
2021/07/30 07:45:23;;;;;;;13.45;5.70;;;;;;;26.44;40.17;98479.50;2222057;80;20945;-81
2021/07/30 07:48:23;;;;;;;12.30;6.15;;;;;;;26.63;41.09;98478.81;2222728;80;20912;-82
2021/07/30 07:51:24;;;;;;;11.93;5.95;;;;;;;26.66;39.26;98491.15;2222729;80;20916;-81
2021/07/30 07:54:24;;;;;;;117.70;14.50;;;;;;;26.61;39.59;98490.56;2222381;80;20944;-82
2021/07/30 07:57:25;;;;;;;20.72;6.87;;;;;;;26.85;40.46;98485.56;2222117;80;20967;-82
2021/07/30 08:00:25;;;;;;;25.00;18.67;;;;;;;26.96;40.02;98478.64;2221289;80;20928;-81
2021/07/30 08:03:25;;;;;;;42.27;36.38;;;;;;;27.21;39.65;98476.70;2220709;80;21332;-81
2021/07/30 08:06:26;;;;;;;15.08;11.80;;;;;;;27.46;38.37;98480.53;2221082;80;20960;-82
2021/07/30 08:09:27;;;;;;;8.55;5.42;;;;;;;27.37;37.92;98480.62;2220993;80;21212;-81
2021/07/30 08:12:27;;;;;;;8.75;5.45;;;;;;;27.23;37.89;98477.94;2221046;80;20936;-81
2021/07/30 08:15:27;;;;;;;7.67;5.83;;;;;;;27.23;38.28;98472.11;2221079;80;20936;-80
2021/07/30 08:18:28;;;;;;;86.72;13.28;;;;;;;27.54;37.22;98471.53;2222047;80;21073;-82
2021/07/30 08:21:30;;;;;;;9.05;5.28;;;;;;;27.40;37.35;98470.20;2221376;80;21314;-81
2021/07/30 08:24:31;;;;;;;8.45;5.17;;;;;;;27.54;37.43;98467.03;2222113;80;20991;-80
2021/07/30 08:27:34;;;;;;;10.50;5.20;;;;;;;27.38;36.40;98468.95;2222027;80;21407;-80
2021/07/30 08:30:34;;;;;;;20.55;8.63;;;;;;;27.52;37.23;98458.23;2222040;80;20998;-81
2021/07/30 08:33:38;;;;;;;7.78;4.72;;;;;;;27.80;37.11;98458.73;2222113;80;20904;-83
2021/07/30 08:36:38;;;;;;;6.50;4.95;;;;;;;27.80;36.74;98464.09;2222265;80;21408;-80
2021/07/30 08:39:39;;;;;;;7.30;4.22;;;;;;;27.98;36.75;98459.84;2222264;80;20928;-79
2021/07/30 08:42:39;;;;;;;9.60;5.08;;;;;;;28.29;36.27;98463.61;2222071;80;21015;-80
2021/07/30 08:45:40;;;;;;;442.37;131.85;;;;;;;28.50;36.08;98466.69;2221588;80;21289;-80
2021/07/30 08:48:40;;;;;;;23.45;9.03;;;;;;;28.29;36.01;98466.30;2222586;80;20928;-80
2021/07/30 08:51:42;;;;;;;15.43;6.72;;;;;;;28.34;35.88;98464.65;2221774;80;20904;-81
2021/07/30 08:54:43;;;;;;;6.95;4.72;;;;;;;28.39;35.49;98456.67;2221403;80;20933;-81
2021/07/30 08:57:43;;;;;;;7.72;5.25;;;;;;;28.40;34.84;98454.36;2221937;80;20956;-80
2021/07/30 09:00:44;;;;;;;14.43;5.00;;;;;;;28.45;34.68;98456.26;2222029;80;20964;-79
2021/07/30 09:03:44;;;;;;;12.23;5.35;;;;;;;28.30;34.16;98449.23;2222116;80;20912;-80
2021/07/30 09:06:45;;;;;;;4.72;4.30;;;;;;;28.12;35.35;98443.23;2222059;80;21334;-80
2021/07/30 09:09:45;;;;;;;8.55;5.08;;;;;;;28.22;33.83;98448.37;2221818;80;20924;-81
2021/07/30 09:12:46;;;;;;;5.12;4.62;;;;;;;28.13;33.83;98448.11;2221903;80;21070;-80
2021/07/30 09:15:46;;;;;;;13.28;9.20;;;;;;;27.95;34.17;98438.59;2221848;80;21363;-80
2021/07/30 09:18:47;;;;;;;10.70;8.83;;;;;;;28.04;35.42;98440.19;2221387;80;20964;-80
2021/07/30 09:21:47;;;;;;;5.60;4.83;;;;;;;28.35;34.98;98438.19;2221601;80;20991;-79
2021/07/30 09:24:48;;;;;;;8.30;4.85;;;;;;;28.12;34.81;98437.86;2221753;80;20937;-79
2021/07/30 09:27:48;;;;;;;11.75;4.92;;;;;;;28.21;35.25;98437.73;2221861;80;20932;-80
2021/07/30 09:30:49;;;;;;;8.93;4.53;;;;;;;28.04;34.47;98431.28;2219155;80;20972;-80
2021/07/30 09:33:53;;;;;;;5.77;4.93;;;;;;;27.84;34.80;98428.56;2189215;81;20951;-79
2021/07/30 09:36:53;;;;;;;6.47;5.17;;;;;;;27.64;35.24;98423.59;2211830;80;20981;-82
2021/07/30 09:39:54;;;;;;;8.23;7.42;;;;;;;27.31;35.47;98423.87;2211672;80;21406;-80
2021/07/30 09:42:55;;;;;;;7.33;6.62;;;;;;;27.11;37.35;98423.30;2211596;81;20984;-82
2021/07/30 09:45:55;;;;;;;15.10;11.90;;;;;;;27.37;37.19;98420.81;2212008;81;20940;-81
2021/07/30 09:48:59;;;;;;;14.35;11.68;;;;;;;27.95;36.77;98416.65;2211728;81;20976;-80
2021/07/30 09:51:59;;;;;;;9.03;8.13;;;;;;;28.23;36.03;98419.74;2211803;81;20897;-80
2021/07/30 09:55:00;;;;;;;13.70;9.35;;;;;;;28.44;35.64;98416.09;2211686;80;20937;-81
2021/07/30 09:58:00;;;;;;;8.83;7.92;;;;;;;28.55;36.34;98405.01;2211565;81;21465;-81
2021/07/30 10:01:01;;;;;;;8.63;7.40;;;;;;;28.73;35.63;98410.11;2211538;80;20959;-82
2021/07/30 10:04:05;;;;;;;6.15;5.33;;;;;;;28.99;35.58;98401.63;2211529;80;21415;-81
2021/07/30 10:07:05;;;;;;;6.42;5.78;;;;;;;29.16;34.83;98402.63;2211023;81;20933;-80
2021/07/30 10:10:24;;;;;;;10.50;6.72;;;;;;;29.27;35.28;98398.70;2211291;80;21011;-82
2021/07/30 10:13:25;;;;;;;10.05;6.25;;;;;;;29.56;34.77;98392.63;2211393;80;21405;-81
2021/07/30 10:16:25;;;;;;;5.20;4.70;;;;;;;29.83;33.36;98394.27;2210869;80;20988;-80
2021/07/30 10:19:26;;;;;;;5.95;4.60;;;;;;;29.76;33.38;98394.73;2211693;80;21104;-81
2021/07/30 10:22:26;;;;;;;5.53;4.87;;;;;;;29.40;32.12;98383.41;2211527;81;20920;-79
2021/07/30 10:25:27;;;;;;;5.33;4.83;;;;;;;29.19;33.00;98379.57;2211863;80;21148;-81
2021/07/30 10:28:32;;;;;;;27.70;6.55;;;;;;;29.20;34.00;98381.78;2211910;81;20933;-79
2021/07/30 10:31:30;;;;;;;6.12;4.70;;;;;;;29.52;34.27;98369.63;2215641;80;21027;-80
2021/07/30 10:34:30;;;;;;;5.67;4.72;;;;;;;29.73;33.77;98375.27;2222013;80;20931;-81
2021/07/30 10:37:31;;;;;;;10.25;5.60;;;;;;;29.88;31.37;98373.27;2222460;80;20959;-81
2021/07/30 10:40:34;;;;;;;6.33;4.92;;;;;;;29.34;32.66;98369.55;2222509;80;21403;-80
2021/07/30 10:43:34;;;;;;;7.05;4.60;;;;;;;29.35;33.09;98356.48;2222994;80;21488;-81
2021/07/30 10:46:35;;;;;;;6.87;4.72;;;;;;;29.55;31.74;98361.34;2222100;80;20937;-80
2021/07/30 10:49:35;;;;;;;13.43;4.92;;;;;;;29.70;34.64;98352.63;2222279;80;20960;-81
2021/07/30 10:52:36;;;;;;;6.60;4.80;;;;;;;29.58;32.53;98344.98;2222900;80;21297;-82
2021/07/30 10:55:36;;;;;;;13.00;4.62;;;;;;;29.30;32.07;98339.83;2221937;80;21305;-83
2021/07/30 10:58:37;;;;;;;5.72;4.40;;;;;;;29.38;32.55;98344.16;2221918;80;20923;-82
2021/07/30 11:01:37;;;;;;;11.00;5.17;;;;;;;29.42;31.97;98345.66;2221912;80;21007;-83
2021/07/30 11:04:39;;;;;;;5.83;4.50;;;;;;;29.41;34.26;98340.77;2222310;80;20889;-83
2021/07/30 11:07:39;;;;;;;15.63;5.55;;;;;;;29.95;33.37;98330.14;2222269;80;21371;-82
2021/07/30 11:10:40;;;;;;;9.53;5.00;;;;;;;30.15;32.91;98332.20;2221968;80;20940;-82
2021/07/30 11:13:43;;;;;;;6.33;5.47;;;;;;;30.13;31.47;98327.92;2222053;80;21006;-81
2021/07/30 11:16:44;;;;;;;18.50;11.95;;;;;;;30.39;31.09;98336.23;2222193;80;20901;-81
2021/07/30 11:19:44;;;;;;;14.60;8.65;;;;;;;30.43;31.35;98325.11;2222445;80;21311;-81
2021/07/30 11:22:45;;;;;;;10.58;7.42;;;;;;;30.55;31.64;98325.14;2222730;80;21362;-83
2021/07/30 11:25:45;;;;;;;6.70;5.97;;;;;;;30.59;31.46;98316.73;2221756;80;20969;-83
2021/07/30 11:28:46;;;;;;;7.70;4.50;;;;;;;30.46;31.51;98317.77;2221855;80;20955;-82
2021/07/30 11:31:46;;;;;;;5.70;4.30;;;;;;;29.89;30.60;98330.11;2222199;80;20961;-82
2021/07/30 11:34:47;;;;;;;6.20;4.30;;;;;;;29.65;31.85;98330.11;2221900;80;20995;-82
2021/07/30 11:37:47;;;;;;;7.70;4.80;;;;;;;29.60;31.64;98320.66;2222854;80;21339;-81
2021/07/30 11:40:48;;;;;;;9.28;4.45;;;;;;;29.44;31.88;98312.83;2222208;80;21360;-81
2021/07/30 11:43:48;;;;;;;4.55;4.03;;;;;;;29.71;31.94;98303.23;2222549;80;21003;-81
2021/07/30 11:46:49;;;;;;;6.37;4.42;;;;;;;29.91;31.81;98309.81;2222655;80;20920;-80
2021/07/30 11:49:49;;;;;;;5.03;4.40;;;;;;;29.72;31.86;98307.16;2222251;80;20908;-82
2021/07/30 11:52:51;;;;;;;4.60;4.30;;;;;;;29.74;30.89;98302.52;2222182;80;21367;-83
2021/07/30 11:55:51;;;;;;;5.15;3.85;;;;;;;29.56;31.34;98300.34;2222355;80;20928;-82
2021/07/30 11:58:52;;;;;;;5.47;4.78;;;;;;;29.52;31.49;98298.38;2222282;80;20926;-82
2021/07/30 12:01:52;;;;;;;5.90;4.65;;;;;;;29.57;32.16;98295.34;2221709;80;20948;-82
2021/07/30 12:04:53;;;;;;;5.87;4.30;;;;;;;29.70;31.57;98299.69;2221525;80;21352;-82
2021/07/30 12:07:54;;;;;;;8.15;4.87;;;;;;;29.75;30.69;98295.31;2221302;80;20963;-82
2021/07/30 12:10:54;;;;;;;7.12;4.58;;;;;;;29.69;30.98;98289.05;2221917;80;20934;-82
2021/07/30 12:13:55;;;;;;;7.83;4.70;;;;;;;29.70;30.70;98298.34;2222046;80;21209;-83
2021/07/30 12:16:57;;;;;;;7.10;4.28;;;;;;;29.86;30.57;98294.50;2222601;80;21277;-81
2021/07/30 12:19:58;;;;;;;5.03;4.53;;;;;;;29.89;31.08;98294.27;2222493;80;20967;-83
2021/07/30 12:22:59;;;;;;;4.80;4.40;;;;;;;30.33;30.70;98281.48;2222146;80;21368;-82
2021/07/30 12:26:00;;;;;;;4.85;4.12;;;;;;;30.50;29.94;98279.71;2222775;80;20912;-81
2021/07/30 12:29:00;;;;;;;4.62;4.22;;;;;;;30.26;30.46;98278.90;2222826;80;21024;-82
2021/07/30 12:32:01;;;;;;;8.23;4.20;;;;;;;30.15;30.80;98288.28;2218274;80;20977;-82
2021/07/30 12:35:01;;;;;;;7.15;4.45;;;;;;;29.90;30.76;98281.19;2211657;80;20968;-82
2021/07/30 12:38:02;;;;;;;8.60;4.50;;;;;;;29.85;30.84;98276.16;2211863;81;20984;-82
2021/07/30 12:41:02;;;;;;;4.85;4.45;;;;;;;29.86;31.49;98275.19;2212020;80;21344;-83
2021/07/30 12:44:03;;;;;;;5.12;4.37;;;;;;;30.07;30.94;98266.00;2212351;80;20972;-83
2021/07/30 12:47:03;;;;;;;4.55;4.15;;;;;;;29.85;30.33;98262.71;2212709;80;20948;-83
2021/07/30 12:50:04;;;;;;;6.78;4.15;;;;;;;29.94;30.77;98258.46;2212638;80;20940;-82
2021/07/30 12:53:08;;;;;;;5.90;4.45;;;;;;;29.94;30.12;98259.32;2190832;81;21390;-81
2021/07/30 12:56:09;;;;;;;5.37;4.15;;;;;;;29.99;30.74;98250.89;2212705;81;20916;-82
2021/07/30 12:59:10;;;;;;;9.20;4.42;;;;;;;30.15;30.47;98252.81;2212355;81;20913;-82
2021/07/30 13:02:10;;;;;;;6.53;4.20;;;;;;;30.11;29.77;98260.27;2211840;81;20964;-81
2021/07/30 13:05:13;;;;;;;5.08;4.53;;;;;;;30.09;30.16;98248.76;2211218;80;20964;-82
2021/07/30 13:08:13;;;;;;;5.90;4.25;;;;;;;30.48;30.14;98244.45;2211496;81;20916;-82
2021/07/30 13:11:14;;;;;;;4.60;4.10;;;;;;;30.81;29.00;98234.22;2212059;80;20977;-81
2021/07/30 13:14:14;;;;;;;4.95;3.87;;;;;;;30.88;29.04;98234.95;2211499;80;20983;-82
2021/07/30 13:17:15;;;;;;;7.60;4.35;;;;;;;30.62;28.96;98234.83;2212119;80;20952;-83
2021/07/30 13:20:16;;;;;;;5.30;4.58;;;;;;;30.38;29.29;98222.30;2212069;81;20940;-82
2021/07/30 13:23:16;;;;;;;4.95;4.50;;;;;;;30.19;29.68;98229.20;2212060;81;20921;-84
2021/07/30 13:26:17;;;;;;;8.85;4.30;;;;;;;29.78;29.98;98219.77;2212222;80;20936;-84
2021/07/30 13:29:19;;;;;;;4.65;4.17;;;;;;;29.62;30.81;98216.52;2212181;80;21344;-84
2021/07/30 13:32:20;;;;;;;12.53;5.80;;;;;;;29.67;30.26;98221.06;2212342;80;20961;-83
2021/07/30 13:35:21;;;;;;;9.23;5.25;;;;;;;29.68;30.61;98216.06;2212013;81;21333;-84
2021/07/30 13:38:22;;;;;;;4.95;4.45;;;;;;;29.89;30.82;98218.45;2212114;81;21317;-82
2021/07/30 13:41:22;;;;;;;4.83;4.40;;;;;;;29.92;30.64;98210.14;2212153;80;20963;-82
2021/07/30 13:44:23;;;;;;;4.70;4.30;;;;;;;29.96;30.38;98211.63;2212198;81;21068;-82
2021/07/30 13:47:24;;;;;;;5.60;4.30;;;;;;;29.85;29.93;98214.77;2212575;81;20893;-85
2021/07/30 13:50:24;;;;;;;7.83;4.95;;;;;;;29.79;30.41;98211.58;2212520;81;21310;-84
2021/07/30 13:53:25;;;;;;;6.47;4.60;;;;;;;29.92;31.17;98213.33;2212672;80;20929;-84
2021/07/30 13:56:25;;;;;;;5.33;4.53;;;;;;;30.04;30.17;98215.10;2212537;81;20889;-84
2021/07/30 13:59:26;;;;;;;8.58;4.10;;;;;;;30.15;30.65;98202.16;2211844;80;20921;-83
2021/07/30 14:02:26;;;;;;;5.80;3.90;;;;;;;30.40;30.48;98204.67;2212559;80;20995;-85
2021/07/30 14:05:27;;;;;;;6.15;4.30;;;;;;;30.45;29.74;98192.19;2212332;80;20964;-83
2021/07/30 14:08:27;;;;;;;8.43;4.67;;;;;;;30.52;30.35;98194.77;2212215;80;20940;-83